Time;durP1;ratioP1;P1;durP2;ratioP2;P2;SDS_P1;SDS_P2;PMS_P1;PMS_P2;Temp;Humidity;BMP_temperature;BMP_pressure;BME280_temperature;BME280_humidity;BME280_pressure;Samples;Min_cycle;Max_cycle;Signal;HPM_P1;HPM_P2
2022/02/28 00:01:33;;;;;;;17.67;14.90;;;;;;;;;;6199502;28;20635;-69
2022/02/28 00:04:54;;;;;;;16.53;13.93;;;;;;;;;;6197093;28;20234;-67
2022/02/28 00:08:14;;;;;;;16.97;14.67;;;;;;;;;;6208183;28;20229;-68
2022/02/28 00:11:35;;;;;;;16.90;15.10;;;;;;;;;;6212427;28;20228;-68
2022/02/28 00:14:56;;;;;;;18.73;14.33;;;;;;;;;;6208271;28;20252;-67
2022/02/28 00:18:17;;;;;;;19.63;15.03;;;;;;;;;;6211907;28;20236;-67
2022/02/28 00:21:37;;;;;;;16.97;15.17;;;;;;;;;;6207412;28;20317;-69
2022/02/28 00:24:58;;;;;;;15.97;13.40;;;;;;;;;;6209463;28;20241;-67
2022/02/28 00:28:19;;;;;;;17.17;14.10;;;;;;;;;;6205421;28;20225;-68
2022/02/28 00:31:41;;;;;;;17.00;15.17;;;;;;;;;;6207664;28;20233;-68
2022/02/28 00:35:04;;;;;;;20.77;15.50;;;;;;;;;;6212356;28;20229;-69
2022/02/28 00:38:25;;;;;;;20.00;15.67;;;;;;;;;;6210696;28;20225;-68
2022/02/28 00:41:46;;;;;;;16.77;13.97;;;;;;;;;;6210506;28;20229;-69
2022/02/28 00:45:06;;;;;;;15.30;13.47;;;;;;;;;;6204400;28;20533;-68
2022/02/28 00:48:28;;;;;;;17.33;14.50;;;;;;;;;;6212230;28;20237;-67
2022/02/28 00:51:49;;;;;;;18.77;14.90;;;;;;;;;;6211250;28;20221;-68
2022/02/28 00:55:10;;;;;;;17.33;15.20;;;;;;;;;;6205834;28;20611;-68
2022/02/28 00:58:31;;;;;;;19.43;15.70;;;;;;;;;;6213962;28;20225;-68
2022/02/28 01:01:51;;;;;;;16.67;14.27;;;;;;;;;;6208629;28;20256;-69
2022/02/28 01:05:14;;;;;;;17.50;14.40;;;;;;;;;;6210380;28;20274;-68
2022/02/28 01:08:35;;;;;;;17.33;15.33;;;;;;;;;;6210863;28;20226;-68
2022/02/28 01:11:56;;;;;;;16.97;13.83;;;;;;;;;;6206537;28;20277;-68
2022/02/28 01:15:17;;;;;;;16.77;13.77;;;;;;;;;;6203410;28;20233;-69
2022/02/28 01:18:39;;;;;;;17.40;12.73;;;;;;;;;;6201073;28;20237;-68
2022/02/28 01:22:01;;;;;;;17.27;13.57;;;;;;;;;;6206382;28;20620;-68
2022/02/28 01:25:21;;;;;;;17.00;14.43;;;;;;;;;;6202145;28;20233;-67
2022/02/28 01:28:42;;;;;;;15.43;13.87;;;;;;;;;;6209851;28;20229;-68
2022/02/28 01:32:02;;;;;;;16.47;13.20;;;;;;;;;;6210043;28;20218;-68
2022/02/28 01:35:23;;;;;;;17.40;14.50;;;;;;;;;;6207926;28;20320;-68
2022/02/28 01:38:45;;;;;;;16.50;13.30;;;;;;;;;;6213493;28;20223;-68
2022/02/28 01:42:05;;;;;;;17.00;14.60;;;;;;;;;;6209088;28;20252;-67
2022/02/28 01:45:26;;;;;;;17.17;14.93;;;;;;;;;;6208209;28;20233;-67
2022/02/28 01:48:46;;;;;;;15.27;12.80;;;;;;;;;;6208835;28;20221;-67
2022/02/28 01:52:07;;;;;;;17.00;13.60;;;;;;;;;;6205354;28;20230;-67
2022/02/28 01:55:29;;;;;;;15.27;13.63;;;;;;;;;;6206429;28;20229;-68
2022/02/28 01:58:50;;;;;;;16.47;13.33;;;;;;;;;;6210220;28;20238;-68
2022/02/28 02:02:11;;;;;;;16.07;14.37;;;;;;;;;;6203361;28;20823;-68
2022/02/28 02:05:32;;;;;;;16.10;13.67;;;;;;;;;;6205709;28;20233;-69
2022/02/28 02:08:53;;;;;;;17.50;14.90;;;;;;;;;;6213213;28;20316;-68
2022/02/28 02:12:15;;;;;;;19.00;14.33;;;;;;;;;;6208360;28;20225;-67
2022/02/28 02:15:35;;;;;;;17.90;14.53;;;;;;;;;;6202422;28;20229;-68
2022/02/28 02:18:55;;;;;;;15.43;13.40;;;;;;;;;;6203628;28;20324;-68
2022/02/28 02:22:20;;;;;;;15.93;13.07;;;;;;;;;;6202048;28;20587;-67
2022/02/28 02:25:41;;;;;;;16.27;14.43;;;;;;;;;;6208557;28;20361;-67
2022/02/28 02:29:01;;;;;;;16.07;14.37;;;;;;;;;;6210435;28;20233;-68
2022/02/28 02:32:22;;;;;;;14.57;13.07;;;;;;;;;;6208529;28;20858;-67
2022/02/28 02:35:47;;;;;;;18.50;14.07;;;;;;;;;;6210356;28;20244;-68
2022/02/28 02:39:09;;;;;;;16.37;13.70;;;;;;;;;;6210040;28;20230;-68
2022/02/28 02:42:30;;;;;;;15.20;12.80;;;;;;;;;;6212878;28;20272;-68
2022/02/28 02:45:50;;;;;;;17.17;14.63;;;;;;;;;;6204007;28;20228;-69
2022/02/28 02:49:11;;;;;;;16.50;14.93;;;;;;;;;;6201367;28;20502;-69
2022/02/28 02:52:32;;;;;;;18.77;14.17;;;;;;;;;;6211134;28;20224;-68
2022/02/28 02:55:54;;;;;;;20.53;15.37;;;;;;;;;;6208935;28;20221;-68
2022/02/28 02:59:14;;;;;;;14.90;13.40;;;;;;;;;;6211902;28;20245;-68
2022/02/28 03:02:35;;;;;;;20.80;15.50;;;;;;;;;;6207807;28;20321;-67
2022/02/28 03:05:57;;;;;;;14.70;12.93;;;;;;;;;;6206181;28;20629;-67
2022/02/28 03:09:19;;;;;;;18.47;13.80;;;;;;;;;;6211214;28;20234;-68
2022/02/28 03:12:43;;;;;;;18.77;14.37;;;;;;;;;;6208498;28;20241;-67
2022/02/28 03:16:03;;;;;;;18.33;14.37;;;;;;;;;;6207800;28;20229;-68
2022/02/28 03:19:27;;;;;;;14.57;12.67;;;;;;;;;;6210311;28;20244;-68
2022/02/28 03:22:47;;;;;;;17.60;14.37;;;;;;;;;;6211626;28;20233;-69
2022/02/28 03:26:10;;;;;;;15.97;14.30;;;;;;;;;;6203769;28;20221;-68
2022/02/28 03:29:35;;;;;;;20.23;15.73;;;;;;;;;;6211394;28;20233;-69
2022/02/28 03:32:58;;;;;;;19.37;16.20;;;;;;;;;;6207402;28;20606;-68
2022/02/28 03:36:19;;;;;;;19.33;14.80;;;;;;;;;;6210086;28;20228;-69
2022/02/28 03:39:44;;;;;;;19.40;15.57;;;;;;;;;;6211077;28;20502;-67
2022/02/28 03:43:06;;;;;;;20.20;14.43;;;;;;;;;;6212552;28;20229;-68
2022/02/28 03:46:48;;;;;;;18.57;15.17;;;;;;;;;;6212161;28;20237;-68
2022/02/28 03:50:09;;;;;;;16.90;13.97;;;;;;;;;;6210744;28;20807;-68
2022/02/28 03:53:29;;;;;;;18.33;15.23;;;;;;;;;;6207619;28;20236;-68
2022/02/28 03:56:50;;;;;;;19.37;15.23;;;;;;;;;;6210649;28;20225;-68
2022/02/28 04:00:11;;;;;;;17.03;15.07;;;;;;;;;;6206296;28;20229;-68
2022/02/28 04:03:37;;;;;;;16.50;14.57;;;;;;;;;;6215848;28;20233;-68
2022/02/28 04:06:57;;;;;;;20.97;16.83;;;;;;;;;;6211452;28;22587;-68
2022/02/28 04:10:21;;;;;;;41.40;34.77;;;;;;;;;;6213001;28;20232;-67
2022/02/28 04:13:42;;;;;;;22.90;19.37;;;;;;;;;;6211254;28;20229;-67
2022/02/28 04:17:05;;;;;;;19.00;17.00;;;;;;;;;;6207729;28;20225;-68
2022/02/28 04:20:36;;;;;;;17.97;15.27;;;;;;;;;;6204106;28;20245;-67
2022/02/28 04:23:56;;;;;;;18.03;15.63;;;;;;;;;;6208562;28;20224;-68
2022/02/28 04:27:17;;;;;;;19.07;16.33;;;;;;;;;;6206080;28;20225;-67
2022/02/28 04:30:38;;;;;;;23.13;19.10;;;;;;;;;;6206978;28;20626;-67
2022/02/28 04:33:59;;;;;;;19.70;15.37;;;;;;;;;;6206504;28;20234;-68
2022/02/28 04:37:21;;;;;;;21.10;16.57;;;;;;;;;;6207381;28;20229;-68
2022/02/28 04:40:42;;;;;;;20.50;17.07;;;;;;;;;;6223268;28;20229;-68
2022/02/28 04:44:03;;;;;;;21.27;16.73;;;;;;;;;;6211090;28;20476;-67
2022/02/28 04:47:24;;;;;;;22.07;17.03;;;;;;;;;;6221681;28;20331;-67
2022/02/28 04:51:02;;;;;;;20.50;17.33;;;;;;;;;;6210874;28;20237;-67
2022/02/28 04:54:26;;;;;;;23.30;16.83;;;;;;;;;;6206503;28;20738;-67
2022/02/28 04:57:46;;;;;;;18.70;16.70;;;;;;;;;;6207064;28;20229;-67
2022/02/28 05:01:22;;;;;;;19.23;15.90;;;;;;;;;;6209117;28;20304;-69
2022/02/28 05:04:46;;;;;;;20.27;17.10;;;;;;;;;;6213664;28;20245;-68
2022/02/28 05:08:07;;;;;;;21.57;17.00;;;;;;;;;;6208796;28;20234;-69
2022/02/28 05:11:29;;;;;;;23.27;19.73;;;;;;;;;;6204837;28;20308;-68
2022/02/28 05:14:50;;;;;;;21.33;17.20;;;;;;;;;;6209779;28;20657;-68
2022/02/28 05:18:11;;;;;;;24.50;18.70;;;;;;;;;;6210030;28;20221;-69
2022/02/28 05:21:33;;;;;;;23.30;18.10;;;;;;;;;;6209092;28;20229;-68
2022/02/28 05:24:53;;;;;;;22.00;18.80;;;;;;;;;;6206219;28;20233;-68
2022/02/28 05:28:17;;;;;;;23.07;18.43;;;;;;;;;;6215637;28;20225;-69
2022/02/28 05:31:38;;;;;;;22.43;18.40;;;;;;;;;;6199048;28;20250;-69
2022/02/28 05:35:30;;;;;;;21.17;17.20;;;;;;;;;;6203604;28;20233;-67
2022/02/28 05:39:05;;;;;;;24.33;18.40;;;;;;;;;;6209065;28;20221;-67
2022/02/28 05:42:26;;;;;;;24.43;20.13;;;;;;;;;;6208640;28;20241;-67
2022/02/28 05:45:51;;;;;;;23.77;19.33;;;;;;;;;;6205912;28;20683;-67
2022/02/28 05:49:31;;;;;;;26.17;20.13;;;;;;;;;;6209231;28;20233;-67
2022/02/28 05:52:52;;;;;;;24.07;20.80;;;;;;;;;;6210145;28;20253;-69
2022/02/28 05:56:13;;;;;;;26.17;19.40;;;;;;;;;;6208129;28;20853;-67
2022/02/28 05:59:34;;;;;;;26.53;19.40;;;;;;;;;;6211128;28;20233;-69
2022/02/28 06:02:55;;;;;;;23.63;20.03;;;;;;;;;;6210868;28;20234;-68
2022/02/28 06:06:16;;;;;;;26.27;20.47;;;;;;;;;;6194476;28;20557;-68
2022/02/28 06:09:39;;;;;;;28.90;22.67;;;;;;;;;;6210091;28;20242;-67
2022/02/28 06:13:00;;;;;;;26.67;21.97;;;;;;;;;;6200358;28;20234;-68
2022/02/28 06:16:21;;;;;;;25.10;21.93;;;;;;;;;;6205726;28;20229;-68
2022/02/28 06:19:43;;;;;;;25.47;20.67;;;;;;;;;;6212783;28;20233;-68
2022/02/28 06:23:03;;;;;;;28.67;21.97;;;;;;;;;;6210432;28;20241;-68
2022/02/28 06:26:24;;;;;;;28.00;20.97;;;;;;;;;;6204914;28;20631;-67
2022/02/28 06:29:44;;;;;;;30.43;22.77;;;;;;;;;;6197969;28;20317;-68
2022/02/28 06:33:05;;;;;;;29.83;22.40;;;;;;;;;;6198667;28;20232;-68
2022/02/28 06:36:27;;;;;;;27.57;22.77;;;;;;;;;;6200492;28;20237;-68
2022/02/28 06:39:48;;;;;;;28.93;23.40;;;;;;;;;;6204071;28;20237;-67
2022/02/28 06:43:08;;;;;;;28.33;22.73;;;;;;;;;;6206723;28;20564;-68
2022/02/28 06:46:29;;;;;;;29.47;22.93;;;;;;;;;;6202946;28;20255;-69
2022/02/28 06:49:49;;;;;;;32.23;23.50;;;;;;;;;;6208522;28;20229;-67
2022/02/28 06:53:11;;;;;;;28.43;21.40;;;;;;;;;;6208460;28;20336;-68
2022/02/28 06:56:34;;;;;;;30.70;24.93;;;;;;;;;;6207573;28;20324;-68
2022/02/28 06:59:56;;;;;;;28.97;22.93;;;;;;;;;;6208062;28;20407;-69
2022/02/28 07:03:17;;;;;;;34.73;26.30;;;;;;;;;;6207735;28;20252;-68
2022/02/28 07:06:37;;;;;;;30.53;24.63;;;;;;;;;;6208224;28;20957;-68
2022/02/28 07:10:00;;;;;;;31.70;24.30;;;;;;;;;;6200627;28;20233;-68
2022/02/28 07:13:21;;;;;;;31.23;25.77;;;;;;;;;;6200134;28;20242;-68
2022/02/28 07:16:42;;;;;;;30.67;24.67;;;;;;;;;;6199239;28;20241;-68
2022/02/28 07:20:03;;;;;;;31.63;24.97;;;;;;;;;;6203094;28;20642;-69
2022/02/28 07:23:23;;;;;;;29.23;22.90;;;;;;;;;;6199410;28;20245;-68
2022/02/28 07:26:45;;;;;;;34.03;25.40;;;;;;;;;;6203159;28;20233;-67
2022/02/28 07:30:08;;;;;;;36.90;24.97;;;;;;;;;;6204636;28;20232;-69
2022/02/28 07:33:28;;;;;;;34.73;23.43;;;;;;;;;;6206917;28;20229;-67
2022/02/28 07:36:49;;;;;;;34.70;26.03;;;;;;;;;;6211969;28;20233;-69
2022/02/28 07:40:10;;;;;;;34.67;26.17;;;;;;;;;;6203144;28;20611;-67
2022/02/28 07:43:32;;;;;;;30.10;23.63;;;;;;;;;;6190047;28;20509;-68
2022/02/28 07:46:53;;;;;;;34.43;27.97;;;;;;;;;;6202071;28;20233;-69
2022/02/28 07:51:08;;;;;;;33.53;25.63;;;;;;;;;;6274420;27;21412;-68
2022/02/28 07:54:29;;;;;;;33.57;26.63;;;;;;;;;;6261748;28;20231;-68
2022/02/28 07:57:50;;;;;;;32.03;24.40;;;;;;;;;;6258437;28;20228;-70
2022/02/28 08:01:12;;;;;;;33.13;26.10;;;;;;;;;;6273095;28;20226;-68
2022/02/28 08:04:33;;;;;;;34.63;26.57;;;;;;;;;;6268652;28;20231;-69
2022/02/28 08:07:56;;;;;;;31.77;25.60;;;;;;;;;;6270335;28;20231;-68
2022/02/28 08:11:16;;;;;;;34.70;25.87;;;;;;;;;;6286198;28;20226;-69
2022/02/28 08:14:39;;;;;;;30.97;23.77;;;;;;;;;;6304284;28;20243;-70
2022/02/28 08:17:59;;;;;;;36.33;27.80;;;;;;;;;;6285426;28;20683;-69
2022/02/28 08:21:20;;;;;;;33.90;26.70;;;;;;;;;;6281779;28;20258;-68
2022/02/28 08:24:42;;;;;;;34.73;26.30;;;;;;;;;;6279552;28;20802;-68
2022/02/28 08:28:03;;;;;;;33.07;26.50;;;;;;;;;;6276524;28;20246;-68
2022/02/28 08:31:24;;;;;;;35.47;27.77;;;;;;;;;;6279434;28;20608;-68
2022/02/28 08:34:45;;;;;;;35.53;26.67;;;;;;;;;;6282077;28;20231;-69
2022/02/28 08:38:05;;;;;;;34.33;27.67;;;;;;;;;;6281619;28;20215;-69
2022/02/28 08:41:31;;;;;;;33.20;26.43;;;;;;;;;;6275612;28;20227;-69
2022/02/28 08:44:52;;;;;;;33.17;27.47;;;;;;;;;;6281358;28;20503;-70
2022/02/28 08:48:13;;;;;;;30.23;23.80;;;;;;;;;;6288489;28;20229;-69
2022/02/28 08:51:34;;;;;;;37.90;30.63;;;;;;;;;;6289259;28;20227;-69
2022/02/28 08:54:55;;;;;;;38.37;29.40;;;;;;;;;;6291816;28;20245;-68
2022/02/28 08:58:18;;;;;;;40.87;30.97;;;;;;;;;;6289531;28;20231;-69
2022/02/28 09:01:39;;;;;;;35.73;27.67;;;;;;;;;;6277192;28;22301;-68
2022/02/28 09:05:00;;;;;;;37.47;30.43;;;;;;;;;;6276435;28;20220;-69
2022/02/28 09:08:20;;;;;;;35.77;29.50;;;;;;;;;;6277533;28;20615;-68
2022/02/28 09:11:41;;;;;;;43.17;32.93;;;;;;;;;;6279817;28;20219;-69
2022/02/28 09:15:04;;;;;;;39.93;31.70;;;;;;;;;;6280980;28;20309;-68
2022/02/28 09:18:25;;;;;;;39.50;30.80;;;;;;;;;;6274258;28;20227;-69
2022/02/28 09:21:46;;;;;;;38.07;28.37;;;;;;;;;;6261925;28;20220;-69
2022/02/28 09:25:08;;;;;;;37.23;28.07;;;;;;;;;;6283011;28;20227;-69
2022/02/28 09:28:29;;;;;;;36.93;28.87;;;;;;;;;;6273537;28;20266;-68
2022/02/28 09:31:51;;;;;;;35.40;29.17;;;;;;;;;;6287167;28;20251;-69
2022/02/28 09:35:12;;;;;;;34.40;26.87;;;;;;;;;;6271325;28;20223;-69
2022/02/28 09:38:33;;;;;;;33.13;25.00;;;;;;;;;;6281533;28;20326;-68
2022/02/28 09:41:54;;;;;;;33.07;26.57;;;;;;;;;;6277542;28;20224;-70
2022/02/28 09:45:34;;;;;;;38.37;32.87;;;;;;;;;;6279057;28;20231;-69
2022/02/28 09:49:28;;;;;;;33.47;28.23;;;;;;;;;;6274905;28;20263;-69
2022/02/28 09:53:08;;;;;;;34.53;26.70;;;;;;;;;;6281916;28;20247;-69
2022/02/28 09:56:59;;;;;;;32.80;26.80;;;;;;;;;;6281735;28;20258;-69
2022/02/28 10:00:52;;;;;;;33.90;25.30;;;;;;;;;;6270468;28;20747;-69
2022/02/28 10:04:14;;;;;;;28.17;23.13;;;;;;;;;;6272653;28;20500;-68
2022/02/28 10:07:48;;;;;;;26.63;22.13;;;;;;;;;;6283761;28;20639;-68
2022/02/28 10:11:27;;;;;;;25.17;22.20;;;;;;;;;;6273841;28;20235;-69
2022/02/28 10:14:48;;;;;;;24.00;21.50;;;;;;;;;;6263824;28;20224;-69
2022/02/28 10:18:09;;;;;;;27.47;24.53;;;;;;;;;;6261867;28;20230;-68
2022/02/28 10:21:44;;;;;;;25.23;21.83;;;;;;;;;;6263984;28;20220;-72
2022/02/28 10:25:07;;;;;;;24.48;21.98;;;;;;;;;;6269442;28;20231;-72
2022/02/28 10:28:46;;;;;;;22.80;20.40;;;;;;;;;;6272774;28;20231;-70
2022/02/28 10:32:27;;;;;;;24.50;21.92;;;;;;;;;;6267106;28;20236;-69
2022/02/28 10:36:13;;;;;;;23.23;20.92;;;;;;;;;;6265500;28;20231;-68
2022/02/28 10:39:36;;;;;;;21.95;19.70;;;;;;;;;;6267248;28;20235;-69
2022/02/28 10:42:59;;;;;;;21.15;19.17;;;;;;;;;;6264530;28;20232;-68
2022/02/28 10:46:21;;;;;;;22.38;20.10;;;;;;;;;;6260849;28;20236;-69
2022/02/28 10:49:42;;;;;;;21.52;19.42;;;;;;;;;;6265997;28;20227;-68
2022/02/28 10:53:04;;;;;;;21.63;19.52;;;;;;;;;;6262859;28;20227;-68
2022/02/28 10:56:24;;;;;;;19.35;17.33;;;;;;;;;;6274192;28;20227;-69
2022/02/28 10:59:49;;;;;;;19.90;17.90;;;;;;;;;;6267679;28;20554;-68
2022/02/28 11:03:10;;;;;;;21.67;19.48;;;;;;;;;;6254684;28;20227;-68
2022/02/28 11:06:31;;;;;;;18.58;16.45;;;;;;;;;;6264270;28;20231;-68
2022/02/28 11:09:52;;;;;;;19.05;17.25;;;;;;;;;;6266558;28;20224;-68
2022/02/28 11:13:13;;;;;;;18.83;16.92;;;;;;;;;;6265569;28;20468;-68
2022/02/28 11:16:36;;;;;;;18.90;17.20;;;;;;;;;;6266477;28;20601;-68
2022/02/28 11:19:59;;;;;;;17.13;15.60;;;;;;;;;;6268933;28;20295;-70
2022/02/28 11:23:21;;;;;;;18.40;16.67;;;;;;;;;;6270284;27;20585;-69
2022/02/28 11:26:41;;;;;;;17.17;15.57;;;;;;;;;;6265901;28;20224;-69
2022/02/28 11:30:05;;;;;;;16.40;14.73;;;;;;;;;;6270408;28;20263;-69
2022/02/28 11:33:27;;;;;;;17.75;16.15;;;;;;;;;;6266568;28;20318;-70
2022/02/28 11:36:50;;;;;;;17.58;15.88;;;;;;;;;;6258408;28;20258;-68
2022/02/28 11:40:11;;;;;;;17.73;15.93;;;;;;;;;;6268134;28;20224;-69
2022/02/28 11:43:33;;;;;;;15.82;14.35;;;;;;;;;;6269807;28;20235;-69
2022/02/28 11:47:01;;;;;;;15.88;14.38;;;;;;;;;;6260477;28;20236;-68
2022/02/28 11:50:23;;;;;;;15.55;14.07;;;;;;;;;;6265732;28;20234;-68
2022/02/28 11:53:45;;;;;;;14.95;13.48;;;;;;;;;;6268322;28;20219;-68
2022/02/28 11:57:06;;;;;;;14.68;13.30;;;;;;;;;;6261335;28;20307;-68
2022/02/28 12:00:40;;;;;;;13.73;12.43;;;;;;;;;;6260510;28;20227;-68
2022/02/28 12:04:13;;;;;;;14.05;12.57;;;;;;;;;;6259305;28;20322;-68
2022/02/28 12:07:39;;;;;;;17.88;12.82;;;;;;;;;;6256332;28;20239;-68
2022/02/28 12:11:16;;;;;;;13.60;12.30;;;;;;;;;;6259476;28;20236;-68
2022/02/28 12:15:17;;;;;;;14.05;12.77;;;;;;;;;;6254727;28;20216;-68
2022/02/28 12:18:38;;;;;;;13.75;12.52;;;;;;;;;;6268592;28;20590;-67
2022/02/28 12:22:00;;;;;;;24.52;22.60;;;;;;;;;;6267558;28;20230;-66
2022/02/28 12:25:31;;;;;;;23.23;21.27;;;;;;;;;;6259563;28;20235;-69
2022/02/28 12:28:55;;;;;;;184.38;166.15;;;;;;;;;;6258316;28;20246;-69
2022/02/28 12:32:48;;;;;;;386.35;356.83;;;;;;;;;;6264213;28;20259;-72
2022/02/28 12:36:11;;;;;;;678.88;620.00;;;;;;;;;;6266505;28;20227;-69
2022/02/28 12:39:32;;;;;;;72.68;66.18;;;;;;;;;;6263056;28;20560;-71
2022/02/28 12:42:56;;;;;;;15.55;14.18;;;;;;;;;;6257106;28;20276;-72
2022/02/28 12:46:19;;;;;;;14.80;13.63;;;;;;;;;;6267428;28;20350;-68
2022/02/28 12:49:39;;;;;;;15.20;13.80;;;;;;;;;;6272457;28;20254;-71
2022/02/28 12:53:00;;;;;;;12.75;11.75;;;;;;;;;;6268213;28;20255;-69
2022/02/28 12:56:26;;;;;;;14.25;12.95;;;;;;;;;;6262033;28;20613;-68
2022/02/28 12:59:51;;;;;;;16.38;14.85;;;;;;;;;;6250497;28;20222;-67
2022/02/28 13:03:12;;;;;;;13.35;12.15;;;;;;;;;;6261043;28;20235;-67
2022/02/28 13:06:34;;;;;;;14.23;12.88;;;;;;;;;;6245713;28;20231;-67
2022/02/28 13:09:55;;;;;;;14.00;12.80;;;;;;;;;;6259353;28;20271;-67
2022/02/28 13:13:24;;;;;;;15.65;14.25;;;;;;;;;;6267512;28;20310;-67
2022/02/28 13:16:47;;;;;;;15.07;13.70;;;;;;;;;;6263861;28;20234;-68
2022/02/28 13:20:09;;;;;;;15.48;14.00;;;;;;;;;;6269661;28;20235;-68
2022/02/28 13:23:29;;;;;;;14.45;13.18;;;;;;;;;;6270037;28;20310;-67
2022/02/28 13:26:51;;;;;;;15.10;13.70;;;;;;;;;;6263616;28;20228;-67
2022/02/28 13:30:13;;;;;;;14.73;13.43;;;;;;;;;;6248074;28;20260;-65
2022/02/28 13:33:37;;;;;;;14.50;13.10;;;;;;;;;;6243770;28;20247;-66
2022/02/28 13:37:00;;;;;;;13.37;12.17;;;;;;;;;;6263537;28;20641;-68
2022/02/28 13:40:24;;;;;;;14.30;13.00;;;;;;;;;;6256376;28;20236;-68
2022/02/28 13:43:52;;;;;;;13.73;11.93;;;;;;;;;;6257460;28;20620;-68
2022/02/28 13:47:14;;;;;;;14.00;12.57;;;;;;;;;;6252107;28;20218;-67
2022/02/28 13:50:36;;;;;;;14.53;13.07;;;;;;;;;;6253201;28;20738;-68
2022/02/28 13:53:57;;;;;;;12.80;11.67;;;;;;;;;;6257115;28;20281;-67
2022/02/28 13:57:18;;;;;;;13.93;12.73;;;;;;;;;;6256554;28;20232;-68
2022/02/28 14:00:49;;;;;;;14.37;12.97;;;;;;;;;;6263787;28;20322;-68
2022/02/28 14:04:10;;;;;;;15.90;14.50;;;;;;;;;;6273242;28;20239;-68
2022/02/28 14:07:36;;;;;;;15.53;13.43;;;;;;;;;;6270989;28;20240;-67
2022/02/28 14:11:02;;;;;;;15.27;13.73;;;;;;;;;;6269376;28;20223;-68
2022/02/28 14:14:23;;;;;;;16.23;14.63;;;;;;;;;;6272751;28;20818;-69
2022/02/28 14:17:53;;;;;;;15.27;13.77;;;;;;;;;;6270331;28;20239;-68
2022/02/28 14:21:14;;;;;;;15.33;13.20;;;;;;;;;;6264790;28;20639;-69
2022/02/28 14:24:58;;;;;;;14.83;13.30;;;;;;;;;;6269309;28;20231;-67
2022/02/28 14:28:49;;;;;;;14.03;12.73;;;;;;;;;;6224660;28;21514;-68
2022/02/28 14:32:33;;;;;;;13.53;12.27;;;;;;;;;;6273848;28;20605;-67
2022/02/28 14:35:55;;;;;;;12.87;11.67;;;;;;;;;;6284765;28;20230;-67
2022/02/28 14:39:16;;;;;;;13.87;12.47;;;;;;;;;;6277624;28;20227;-67
2022/02/28 14:42:38;;;;;;;13.97;11.97;;;;;;;;;;6275615;28;20533;-68
2022/02/28 14:45:59;;;;;;;13.90;12.57;;;;;;;;;;6274547;28;20227;-66
2022/02/28 14:49:20;;;;;;;13.60;12.37;;;;;;;;;;6268862;28;20235;-67
2022/02/28 14:52:43;;;;;;;12.50;11.40;;;;;;;;;;6277189;28;20259;-67
2022/02/28 14:56:04;;;;;;;14.63;13.33;;;;;;;;;;6271745;28;20597;-67
2022/02/28 14:59:27;;;;;;;14.30;13.00;;;;;;;;;;6272245;28;20223;-68
2022/02/28 15:02:48;;;;;;;14.67;13.37;;;;;;;;;;6275342;28;20231;-67
2022/02/28 15:06:09;;;;;;;13.07;11.87;;;;;;;;;;6272601;28;20238;-69
2022/02/28 15:09:30;;;;;;;13.60;12.40;;;;;;;;;;6266924;28;20227;-67
2022/02/28 15:12:51;;;;;;;14.97;13.57;;;;;;;;;;6261083;28;20235;-68
2022/02/28 15:16:13;;;;;;;13.50;12.27;;;;;;;;;;6257320;28;20228;-65
2022/02/28 15:19:34;;;;;;;13.30;12.00;;;;;;;;;;6262866;28;20236;-67
2022/02/28 15:22:55;;;;;;;14.57;13.17;;;;;;;;;;6269538;28;20228;-67
2022/02/28 15:26:16;;;;;;;16.17;13.60;;;;;;;;;;6278618;28;20231;-68
2022/02/28 15:29:37;;;;;;;16.23;14.53;;;;;;;;;;6268423;28;20235;-66
2022/02/28 15:32:59;;;;;;;16.40;14.80;;;;;;;;;;6265003;28;20692;-67
2022/02/28 15:36:20;;;;;;;14.67;13.17;;;;;;;;;;6262333;28;20276;-66
2022/02/28 15:39:41;;;;;;;15.40;13.90;;;;;;;;;;6263072;28;20798;-66
2022/02/28 15:43:04;;;;;;;13.53;12.23;;;;;;;;;;6279208;28;20231;-67
2022/02/28 15:46:25;;;;;;;14.30;12.87;;;;;;;;;;6274824;28;20228;-68
2022/02/28 15:49:47;;;;;;;14.53;13.20;;;;;;;;;;6272994;28;20258;-68
2022/02/28 15:53:08;;;;;;;15.37;13.60;;;;;;;;;;6269495;28;20267;-67
2022/02/28 15:56:30;;;;;;;14.57;13.17;;;;;;;;;;6269156;28;20236;-67
2022/02/28 15:59:51;;;;;;;11.30;10.27;;;;;;;;;;6275991;28;20244;-67
2022/02/28 16:03:13;;;;;;;11.97;10.43;;;;;;;;;;6261617;28;20231;-68
2022/02/28 16:06:35;;;;;;;10.73;9.30;;;;;;;;;;6251476;28;20758;-67
2022/02/28 16:09:57;;;;;;;10.67;9.47;;;;;;;;;;6244555;28;20226;-66
2022/02/28 16:13:19;;;;;;;10.90;9.37;;;;;;;;;;6257592;28;20231;-69
2022/02/28 16:16:39;;;;;;;10.97;9.87;;;;;;;;;;6263747;28;20223;-70
2022/02/28 16:20:00;;;;;;;11.20;8.80;;;;;;;;;;6266337;28;20690;-68
2022/02/28 16:23:24;;;;;;;9.57;8.57;;;;;;;;;;6266328;28;20243;-67
2022/02/28 16:26:45;;;;;;;10.43;8.33;;;;;;;;;;6259013;28;20242;-67
2022/02/28 16:30:08;;;;;;;9.63;8.67;;;;;;;;;;6266546;28;20674;-67
2022/02/28 16:33:29;;;;;;;9.70;8.83;;;;;;;;;;6260589;28;20261;-67
2022/02/28 16:36:50;;;;;;;12.53;11.33;;;;;;;;;;6270346;28;20224;-67
2022/02/28 16:40:15;;;;;;;10.40;9.40;;;;;;;;;;6255028;28;21633;-66
2022/02/28 16:43:37;;;;;;;10.17;9.17;;;;;;;;;;6260998;28;20216;-67
2022/02/28 16:46:58;;;;;;;10.50;9.37;;;;;;;;;;6256695;28;20569;-65
2022/02/28 16:50:18;;;;;;;10.70;9.70;;;;;;;;;;6255768;28;20235;-68
2022/02/28 16:53:39;;;;;;;11.70;8.90;;;;;;;;;;6265153;28;20825;-67
2022/02/28 16:57:01;;;;;;;10.77;9.67;;;;;;;;;;6259610;28;20243;-67
2022/02/28 17:00:22;;;;;;;10.83;9.73;;;;;;;;;;6256926;28;20223;-67
2022/02/28 17:03:43;;;;;;;9.73;8.73;;;;;;;;;;6262984;28;20231;-68
2022/02/28 17:07:05;;;;;;;13.00;11.60;;;;;;;;;;6267314;28;20231;-68
2022/02/28 17:10:27;;;;;;;12.33;11.13;;;;;;;;;;6257923;28;20499;-68
2022/02/28 17:13:49;;;;;;;11.40;10.30;;;;;;;;;;6259905;28;20243;-67
2022/02/28 17:17:09;;;;;;;11.27;10.10;;;;;;;;;;6262034;28;20243;-67
2022/02/28 17:20:31;;;;;;;12.77;11.33;;;;;;;;;;6264101;28;20231;-66
2022/02/28 17:23:52;;;;;;;12.97;11.63;;;;;;;;;;6279021;28;20263;-66
2022/02/28 17:27:12;;;;;;;11.57;10.47;;;;;;;;;;6264137;28;20507;-67
2022/02/28 17:30:35;;;;;;;12.47;10.90;;;;;;;;;;6268201;28;20236;-66
2022/02/28 17:33:56;;;;;;;14.73;10.83;;;;;;;;;;6261406;28;20800;-67
2022/02/28 17:37:17;;;;;;;12.67;11.43;;;;;;;;;;6260797;28;20232;-66
2022/02/28 17:40:37;;;;;;;16.60;14.63;;;;;;;;;;6273397;28;20216;-68
2022/02/28 17:43:58;;;;;;;13.20;11.20;;;;;;;;;;6266375;28;20239;-68
2022/02/28 17:47:20;;;;;;;13.00;11.37;;;;;;;;;;6264074;28;20610;-67
2022/02/28 17:50:41;;;;;;;18.67;16.73;;;;;;;;;;6269326;28;20647;-67
2022/02/28 17:54:02;;;;;;;14.23;12.83;;;;;;;;;;6272394;28;20219;-67
2022/02/28 17:57:23;;;;;;;15.57;12.33;;;;;;;;;;6268657;28;20326;-69
2022/02/28 18:00:44;;;;;;;12.37;11.10;;;;;;;;;;6265904;28;20574;-67
2022/02/28 18:04:07;;;;;;;14.67;12.07;;;;;;;;;;6258698;28;20354;-68
2022/02/28 18:07:28;;;;;;;12.60;11.07;;;;;;;;;;6260261;28;20845;-68
2022/02/28 18:10:48;;;;;;;13.23;11.93;;;;;;;;;;6257902;28;20246;-69
2022/02/28 18:14:09;;;;;;;15.00;12.27;;;;;;;;;;6259611;28;20230;-68
2022/02/28 18:17:32;;;;;;;12.97;11.67;;;;;;;;;;6265506;28;20233;-68
2022/02/28 18:20:55;;;;;;;13.00;11.80;;;;;;;;;;6250034;28;20224;-67
2022/02/28 18:24:20;;;;;;;11.33;10.17;;;;;;;;;;6263053;28;20259;-66
2022/02/28 18:27:48;;;;;;;16.43;13.60;;;;;;;;;;6241538;27;20235;-69
2022/02/28 18:31:21;;;;;;;11.97;10.77;;;;;;;;;;6232299;28;20275;-68
2022/02/28 18:34:42;;;;;;;14.57;13.07;;;;;;;;;;6245082;28;20648;-69
2022/02/28 18:38:10;;;;;;;13.77;12.40;;;;;;;;;;6255135;28;20627;-67
2022/02/28 18:41:30;;;;;;;14.40;11.80;;;;;;;;;;6259100;28;20224;-68
2022/02/28 18:44:51;;;;;;;15.13;13.50;;;;;;;;;;6260015;28;20231;-67
2022/02/28 18:48:13;;;;;;;16.13;12.90;;;;;;;;;;6263677;28;20244;-69
2022/02/28 18:51:33;;;;;;;13.73;12.33;;;;;;;;;;6259890;28;20684;-67
2022/02/28 18:54:56;;;;;;;16.67;15.00;;;;;;;;;;6267576;28;20224;-66
2022/02/28 18:58:17;;;;;;;16.27;13.00;;;;;;;;;;6267090;28;20421;-67
2022/02/28 19:01:38;;;;;;;15.20;12.30;;;;;;;;;;6263420;28;20222;-68
2022/02/28 19:05:00;;;;;;;14.30;12.77;;;;;;;;;;6264973;28;20223;-69
2022/02/28 19:08:22;;;;;;;13.70;12.10;;;;;;;;;;6254098;28;20236;-68
2022/02/28 19:11:44;;;;;;;16.03;13.13;;;;;;;;;;6272519;28;20251;-68
2022/02/28 19:15:06;;;;;;;15.10;12.17;;;;;;;;;;6268915;28;20318;-68
2022/02/28 19:18:27;;;;;;;14.60;12.20;;;;;;;;;;6268709;28;20236;-69
2022/02/28 19:21:55;;;;;;;13.87;12.33;;;;;;;;;;6269540;28;20235;-69
2022/02/28 19:25:16;;;;;;;15.87;14.30;;;;;;;;;;6269916;28;20243;-69
2022/02/28 19:28:39;;;;;;;15.17;13.53;;;;;;;;;;6270295;28;20641;-69
2022/02/28 19:32:00;;;;;;;19.10;14.80;;;;;;;;;;6266176;28;20263;-67
2022/02/28 19:35:21;;;;;;;19.43;17.03;;;;;;;;;;6269909;28;20308;-69
2022/02/28 19:38:41;;;;;;;15.67;13.97;;;;;;;;;;6258790;28;20227;-67
2022/02/28 19:42:03;;;;;;;19.83;15.13;;;;;;;;;;6268789;28;21811;-67
2022/02/28 19:45:25;;;;;;;16.67;13.30;;;;;;;;;;6260310;28;20227;-67